Time;durP1;ratioP1;P1;durP2;ratioP2;P2;SDS_P1;SDS_P2;PMS_P1;PMS_P2;Temp;Humidity;BMP_temperature;BMP_pressure;BME280_temperature;BME280_humidity;BME280_pressure;Samples;Min_cycle;Max_cycle;Signal;HPM_P1;HPM_P2
2021/12/01 00:00:48;;;;;;;;;;;22.70;50.50;;;;;;5115046;28;19912;-59
2021/12/01 00:03:14;;;;;;;;;;;22.70;50.50;;;;;;5113966;28;19946;-61
2021/12/01 00:05:40;;;;;;;;;;;22.70;50.50;;;;;;5115083;28;19914;-61
2021/12/01 00:08:06;;;;;;;;;;;22.70;50.50;;;;;;5115449;28;20390;-59
2021/12/01 00:10:34;;;;;;;;;;;22.70;50.50;;;;;;5108461;28;19912;-59
2021/12/01 00:13:01;;;;;;;;;;;22.70;50.50;;;;;;5094360;28;20390;-59
2021/12/01 00:15:26;;;;;;;;;;;22.60;50.40;;;;;;5094654;28;19908;-59
2021/12/01 00:17:52;;;;;;;;;;;22.60;50.40;;;;;;5093512;28;20364;-59
2021/12/01 00:20:18;;;;;;;;;;;22.60;50.40;;;;;;5098633;28;20276;-59
2021/12/01 00:22:44;;;;;;;;;;;22.60;50.40;;;;;;5094001;28;20350;-60
2021/12/01 00:25:12;;;;;;;;;;;22.60;50.40;;;;;;5093612;28;19943;-60
2021/12/01 00:27:37;;;;;;;;;;;22.60;50.40;;;;;;5094185;28;19958;-60
2021/12/01 00:30:03;;;;;;;;;;;22.60;50.40;;;;;;5096041;28;20337;-60
2021/12/01 00:32:29;;;;;;;;;;;22.50;50.40;;;;;;5114250;28;20284;-60
2021/12/01 00:34:54;;;;;;;;;;;22.50;50.30;;;;;;5114395;28;19912;-60
2021/12/01 00:37:20;;;;;;;;;;;22.50;50.30;;;;;;5114440;28;19951;-59
2021/12/01 00:39:45;;;;;;;;;;;22.50;50.30;;;;;;5113658;28;19955;-60
2021/12/01 00:42:12;;;;;;;;;;;22.50;50.30;;;;;;5114303;28;19918;-60
2021/12/01 00:44:44;;;;;;;;;;;22.50;50.30;;;;;;5114157;28;19908;-59
2021/12/01 00:47:12;;;;;;;;;;;22.50;50.30;;;;;;5114310;28;19908;-59
2021/12/01 00:49:37;;;;;;;;;;;22.50;50.30;;;;;;5114178;28;20000;-60
2021/12/01 00:52:03;;;;;;;;;;;22.50;50.30;;;;;;5107778;28;19959;-59
2021/12/01 00:54:28;;;;;;;;;;;22.40;50.20;;;;;;5092932;28;19920;-59
2021/12/01 00:56:54;;;;;;;;;;;22.40;50.30;;;;;;5093662;28;20332;-60
2021/12/01 00:59:19;;;;;;;;;;;22.40;50.20;;;;;;5093548;28;19969;-60
2021/12/01 01:01:46;;;;;;;;;;;22.40;50.20;;;;;;5093489;28;19908;-60
2021/12/01 01:04:12;;;;;;;;;;;22.40;50.20;;;;;;5093506;28;19944;-59
2021/12/01 01:06:37;;;;;;;;;;;22.40;50.20;;;;;;5093282;28;19962;-59
2021/12/01 01:09:05;;;;;;;;;;;22.40;50.20;;;;;;5095105;28;19969;-59
2021/12/01 01:17:06;;;;;;;;;;;22.40;50.20;;;;;;5113890;28;19915;-60
2021/12/01 01:19:32;;;;;;;;;;;22.30;50.10;;;;;;5113721;28;19912;-61
2021/12/01 01:21:59;;;;;;;;;;;22.30;50.10;;;;;;5113289;28;20338;-60
2021/12/01 01:24:24;;;;;;;;;;;22.30;50.10;;;;;;5112829;28;20375;-60
2021/12/01 01:26:50;;;;;;;;;;;22.30;50.10;;;;;;5113360;28;19908;-60
2021/12/01 01:29:20;;;;;;;;;;;22.30;50.10;;;;;;5112184;28;20396;-60
2021/12/01 01:31:47;;;;;;;;;;;22.30;50.00;;;;;;5093067;28;19953;-60
2021/12/01 01:34:12;;;;;;;;;;;22.30;50.10;;;;;;5108068;28;20358;-60
2021/12/01 01:36:38;;;;;;;;;;;22.30;50.00;;;;;;5093087;28;19908;-60
2021/12/01 01:39:04;;;;;;;;;;;22.30;50.00;;;;;;5092463;28;19908;-60
2021/12/01 01:41:30;;;;;;;;;;;22.20;50.00;;;;;;5092828;28;19908;-59
2021/12/01 01:43:55;;;;;;;;;;;22.20;50.00;;;;;;5092699;28;20383;-59
2021/12/01 01:46:21;;;;;;;;;;;22.20;50.00;;;;;;5092589;28;19957;-60
2021/12/01 01:48:53;;;;;;;;;;;22.20;50.00;;;;;;5091265;28;20011;-60
2021/12/01 01:51:21;;;;;;;;;;;22.20;49.90;;;;;;5092776;28;19908;-60
2021/12/01 01:53:48;;;;;;;;;;;22.20;49.90;;;;;;5091975;28;20399;-61
2021/12/01 01:56:14;;;;;;;;;;;22.20;49.90;;;;;;5106981;28;20288;-60
2021/12/01 01:58:39;;;;;;;;;;;22.20;49.90;;;;;;5112855;28;20370;-60
2021/12/01 02:01:07;;;;;;;;;;;22.10;49.90;;;;;;5112989;28;20404;-60
2021/12/01 02:03:43;;;;;;;;;;;22.10;49.90;;;;;;5112761;28;20002;-59
2021/12/01 02:06:09;;;;;;;;;;;22.10;49.90;;;;;;5112823;28;20015;-59
2021/12/01 02:08:37;;;;;;;;;;;22.10;49.90;;;;;;5093830;28;19946;-59
2021/12/01 02:11:07;;;;;;;;;;;22.10;49.90;;;;;;5112824;28;19965;-61
2021/12/01 02:13:32;;;;;;;;;;;22.10;49.90;;;;;;5112153;28;20427;-60
2021/12/01 02:15:58;;;;;;;;;;;22.10;49.90;;;;;;5112273;28;19966;-60
2021/12/01 02:18:25;;;;;;;;;;;22.10;49.90;;;;;;5112495;28;19908;-60
2021/12/01 02:20:57;;;;;;;;;;;22.00;49.80;;;;;;5112602;28;19915;-60
2021/12/01 02:23:23;;;;;;;;;;;22.00;49.80;;;;;;5111945;28;19920;-61
2021/12/01 02:25:49;;;;;;;;;;;22.00;49.90;;;;;;5111610;28;19908;-60
2021/12/01 02:28:14;;;;;;;;;;;22.00;49.90;;;;;;5094349;28;20347;-61
2021/12/01 02:30:40;;;;;;;;;;;22.00;49.80;;;;;;5105499;28;19999;-59
2021/12/01 02:33:05;;;;;;;;;;;22.00;49.80;;;;;;5091934;28;20363;-59
2021/12/01 02:35:30;;;;;;;;;;;22.00;49.80;;;;;;5092178;28;19908;-60
2021/12/01 02:37:56;;;;;;;;;;;22.00;49.80;;;;;;5104804;28;20375;-60
2021/12/01 02:40:22;;;;;;;;;;;22.00;49.80;;;;;;5112404;28;20338;-60
2021/12/01 02:42:47;;;;;;;;;;;22.00;49.90;;;;;;5112136;28;19919;-60
2021/12/01 02:45:13;;;;;;;;;;;22.00;49.90;;;;;;5112218;28;19998;-59
2021/12/01 02:47:38;;;;;;;;;;;22.00;49.90;;;;;;5112260;28;19960;-60
2021/12/01 02:50:05;;;;;;;;;;;21.90;49.80;;;;;;5112169;28;20003;-60
2021/12/01 02:52:34;;;;;;;;;;;22.00;49.90;;;;;;5112294;28;19930;-59
2021/12/01 02:55:02;;;;;;;;;;;21.90;49.80;;;;;;5111963;28;19919;-59
2021/12/01 02:57:28;;;;;;;;;;;21.90;49.80;;;;;;5112063;28;19907;-60
2021/12/01 02:59:53;;;;;;;;;;;21.90;49.80;;;;;;5112163;28;19908;-58
2021/12/01 03:02:19;;;;;;;;;;;21.90;49.80;;;;;;5111978;28;19915;-59
2021/12/01 03:04:44;;;;;;;;;;;21.90;49.80;;;;;;5111323;28;19908;-60
2021/12/01 03:07:11;;;;;;;;;;;21.90;49.80;;;;;;5094485;28;19954;-60
2021/12/01 03:09:36;;;;;;;;;;;21.90;49.80;;;;;;5091230;28;19924;-60
2021/12/01 03:12:02;;;;;;;;;;;21.80;49.80;;;;;;5091701;28;19908;-61
2021/12/01 03:14:27;;;;;;;;;;;21.90;49.80;;;;;;5091083;28;20389;-60
2021/12/01 03:16:54;;;;;;;;;;;21.80;49.80;;;;;;5091508;28;19960;-58
2021/12/01 03:19:19;;;;;;;;;;;21.80;49.70;;;;;;5091024;28;19908;-60
2021/12/01 03:21:45;;;;;;;;;;;21.80;50.10;;;;;;5091535;28;20387;-60
2021/12/01 03:24:11;;;;;;;;;;;21.80;49.80;;;;;;5090149;28;19994;-59
2021/12/01 03:26:37;;;;;;;;;;;21.80;49.80;;;;;;5091422;28;19948;-60
2021/12/01 03:29:04;;;;;;;;;;;21.80;49.70;;;;;;5091632;28;20364;-60
2021/12/01 03:31:29;;;;;;;;;;;21.80;49.80;;;;;;5091465;28;20365;-59
2021/12/01 03:33:55;;;;;;;;;;;21.80;49.80;;;;;;5091106;28;19920;-60
2021/12/01 03:36:20;;;;;;;;;;;21.80;49.70;;;;;;5091538;28;19908;-60
2021/12/01 03:38:47;;;;;;;;;;;21.80;49.80;;;;;;5095046;28;19912;-59
2021/12/01 03:41:12;;;;;;;;;;;21.70;49.70;;;;;;5095076;28;19944;-58
2021/12/01 03:43:38;;;;;;;;;;;21.70;49.70;;;;;;5095231;28;19915;-61
2021/12/01 03:46:03;;;;;;;;;;;21.70;49.60;;;;;;5094985;28;20453;-60
2021/12/01 03:48:29;;;;;;;;;;;21.70;49.70;;;;;;5094355;28;19947;-59
2021/12/01 03:50:54;;;;;;;;;;;21.70;49.70;;;;;;5094866;28;19978;-59
2021/12/01 03:53:21;;;;;;;;;;;21.70;49.70;;;;;;5094602;28;19916;-60
2021/12/01 03:55:46;;;;;;;;;;;21.70;49.70;;;;;;5095142;28;19931;-60
2021/12/01 03:58:12;;;;;;;;;;;21.70;49.70;;;;;;5094754;28;20368;-61
2021/12/01 04:00:38;;;;;;;;;;;21.70;49.70;;;;;;5094631;28;19912;-61
2021/12/01 04:03:04;;;;;;;;;;;21.70;49.70;;;;;;5103630;28;19908;-60
2021/12/01 04:05:29;;;;;;;;;;;21.70;49.70;;;;;;5114986;28;19908;-61
2021/12/01 04:07:55;;;;;;;;;;;21.60;49.60;;;;;;5109771;28;19919;-61
2021/12/01 04:10:20;;;;;;;;;;;21.60;49.70;;;;;;5094251;28;19911;-60
2021/12/01 04:12:46;;;;;;;;;;;21.60;49.70;;;;;;5094367;28;19912;-61
2021/12/01 04:15:12;;;;;;;;;;;21.60;49.70;;;;;;5094655;28;19923;-60
2021/12/01 04:17:39;;;;;;;;;;;21.60;49.70;;;;;;5093956;28;19955;-59
2021/12/01 04:20:04;;;;;;;;;;;21.60;49.70;;;;;;5094369;28;19931;-61
2021/12/01 04:22:30;;;;;;;;;;;21.50;49.60;;;;;;5104013;28;20368;-59
2021/12/01 04:24:55;;;;;;;;;;;21.50;49.60;;;;;;5114711;28;19934;-59
2021/12/01 04:27:21;;;;;;;;;;;21.60;49.70;;;;;;5114532;28;20301;-60
2021/12/01 04:29:46;;;;;;;;;;;21.50;49.60;;;;;;5114566;28;19908;-59
2021/12/01 04:32:12;;;;;;;;;;;21.50;49.60;;;;;;5114322;28;19912;-59
2021/12/01 04:34:37;;;;;;;;;;;21.50;49.70;;;;;;5114512;28;20386;-59
2021/12/01 04:37:04;;;;;;;;;;;21.50;49.70;;;;;;5114421;28;19993;-60
2021/12/01 04:39:29;;;;;;;;;;;21.50;49.70;;;;;;5114386;28;20431;-59
2021/12/01 04:41:56;;;;;;;;;;;21.50;49.60;;;;;;5114329;28;19984;-60
2021/12/01 04:44:24;;;;;;;;;;;21.40;49.60;;;;;;5114369;28;19927;-59
2021/12/01 04:46:52;;;;;;;;;;;21.40;49.60;;;;;;5113664;28;19919;-60
2021/12/01 04:49:19;;;;;;;;;;;21.40;49.60;;;;;;5113657;28;19908;-59
2021/12/01 04:51:45;;;;;;;;;;;21.40;49.60;;;;;;5114043;28;19915;-59
2021/12/01 04:54:11;;;;;;;;;;;21.40;49.60;;;;;;5114125;28;19926;-60
2021/12/01 04:56:37;;;;;;;;;;;21.40;49.60;;;;;;5113995;28;20372;-60
2021/12/01 04:59:05;;;;;;;;;;;21.40;49.60;;;;;;5113986;28;19919;-60
2021/12/01 05:01:33;;;;;;;;;;;21.40;49.60;;;;;;5113707;28;20279;-60
2021/12/01 05:03:58;;;;;;;;;;;21.40;49.60;;;;;;5106711;28;19915;-59
2021/12/01 05:06:24;;;;;;;;;;;21.40;49.60;;;;;;5093147;28;19908;-61
2021/12/01 05:08:49;;;;;;;;;;;21.40;49.60;;;;;;5093383;28;19912;-60
2021/12/01 05:11:15;;;;;;;;;;;21.40;49.60;;;;;;5093375;28;19909;-59
2021/12/01 05:13:40;;;;;;;;;;;21.30;49.60;;;;;;5093211;28;19939;-60
2021/12/01 05:16:06;;;;;;;;;;;21.30;49.60;;;;;;5092811;28;19912;-60
2021/12/01 05:18:31;;;;;;;;;;;21.30;49.60;;;;;;5093087;28;19919;-60
2021/12/01 05:20:57;;;;;;;;;;;21.30;49.60;;;;;;5093180;28;20349;-60
2021/12/01 05:23:22;;;;;;;;;;;21.30;49.60;;;;;;5111918;28;20485;-60
2021/12/01 05:25:47;;;;;;;;;;;21.30;49.60;;;;;;5113437;28;19915;-60
2021/12/01 05:28:13;;;;;;;;;;;21.30;49.60;;;;;;5113428;28;19908;-60
2021/12/01 05:30:39;;;;;;;;;;;21.30;49.60;;;;;;5112760;28;19914;-59
2021/12/01 05:33:11;;;;;;;;;;;21.20;49.60;;;;;;5113117;28;20016;-60
2021/12/01 05:35:37;;;;;;;;;;;21.30;49.60;;;;;;5113168;28;19924;-61
2021/12/01 05:38:03;;;;;;;;;;;21.20;49.60;;;;;;5113220;28;20437;-60
2021/12/01 05:40:29;;;;;;;;;;;21.20;49.60;;;;;;5113060;28;19954;-60
2021/12/01 05:42:54;;;;;;;;;;;21.20;49.60;;;;;;5113700;28;19907;-60
2021/12/01 05:45:20;;;;;;;;;;;21.20;49.60;;;;;;5112862;28;19912;-60
2021/12/01 05:47:45;;;;;;;;;;;21.20;49.60;;;;;;5113039;28;20302;-61
2021/12/01 05:50:11;;;;;;;;;;;21.20;49.60;;;;;;5112772;28;20253;-59
2021/12/01 05:52:37;;;;;;;;;;;21.20;49.60;;;;;;5112809;28;19964;-59
2021/12/01 05:55:03;;;;;;;;;;;21.20;49.60;;;;;;5107522;28;19928;-60
2021/12/01 05:57:28;;;;;;;;;;;21.20;49.60;;;;;;5092441;28;19914;-62
2021/12/01 05:59:54;;;;;;;;;;;21.20;49.60;;;;;;5091509;28;19908;-59
2021/12/01 06:02:19;;;;;;;;;;;21.20;49.60;;;;;;5092065;28;19908;-59
2021/12/01 06:04:45;;;;;;;;;;;21.20;49.60;;;;;;5092260;28;19908;-60
2021/12/01 06:07:10;;;;;;;;;;;21.10;49.60;;;;;;5092379;28;20402;-60
2021/12/01 06:09:36;;;;;;;;;;;21.20;49.70;;;;;;5111256;28;19962;-60
2021/12/01 06:12:01;;;;;;;;;;;21.20;49.70;;;;;;5112520;28;19919;-60
2021/12/01 06:14:27;;;;;;;;;;;21.20;49.70;;;;;;5112248;28;19915;-58
2021/12/01 06:16:53;;;;;;;;;;;21.10;49.70;;;;;;5112429;28;20359;-56
2021/12/01 06:19:19;;;;;;;;;;;21.10;49.70;;;;;;5112450;28;19908;-58
2021/12/01 06:21:45;;;;;;;;;;;21.20;49.80;;;;;;5107091;28;19927;-54
2021/12/01 06:24:10;;;;;;;;;;;21.20;49.80;;;;;;5106876;28;19935;-56
2021/12/01 06:26:35;;;;;;;;;;;21.20;49.80;;;;;;5092175;28;19963;-59
2021/12/01 06:29:01;;;;;;;;;;;21.20;49.90;;;;;;5091561;28;19908;-59
2021/12/01 06:31:26;;;;;;;;;;;21.20;49.90;;;;;;5091738;28;19999;-59
2021/12/01 06:33:52;;;;;;;;;;;21.20;49.90;;;;;;5091777;28;20016;-58
2021/12/01 06:36:17;;;;;;;;;;;21.20;50.00;;;;;;5102035;28;19965;-58
2021/12/01 06:38:43;;;;;;;;;;;21.20;50.00;;;;;;5093886;28;19907;-57
2021/12/01 06:41:09;;;;;;;;;;;21.30;50.10;;;;;;5112274;28;19990;-58
2021/12/01 06:43:34;;;;;;;;;;;21.30;50.10;;;;;;5111713;28;19919;-57
2021/12/01 06:46:00;;;;;;;;;;;21.30;50.10;;;;;;5111973;28;19953;-56
2021/12/01 06:48:25;;;;;;;;;;;21.30;50.20;;;;;;5112544;28;19908;-58
2021/12/01 06:50:51;;;;;;;;;;;21.30;50.30;;;;;;5111978;28;20006;-57
2021/12/01 06:53:17;;;;;;;;;;;21.20;50.30;;;;;;5112096;28;20016;-56
2021/12/01 06:55:43;;;;;;;;;;;21.30;50.40;;;;;;5112095;28;19908;-57
2021/12/01 06:58:08;;;;;;;;;;;21.30;50.40;;;;;;5111495;28;19907;-56
2021/12/01 07:00:34;;;;;;;;;;;21.30;50.40;;;;;;5112016;28;19961;-55
2021/12/01 07:03:00;;;;;;;;;;;21.30;50.50;;;;;;5111930;28;19908;-59
2021/12/01 07:05:25;;;;;;;;;;;21.30;50.50;;;;;;5111967;28;19908;-58
2021/12/01 07:07:50;;;;;;;;;;;21.40;50.50;;;;;;5111983;28;20264;-55
2021/12/01 07:10:16;;;;;;;;;;;21.40;50.50;;;;;;5111913;28;20011;-56
2021/12/01 07:12:42;;;;;;;;;;;21.40;50.60;;;;;;5113917;28;19959;-56
2021/12/01 07:15:08;;;;;;;;;;;21.40;50.60;;;;;;5116271;28;19965;-55
2021/12/01 07:17:34;;;;;;;;;;;21.40;50.60;;;;;;5115831;28;20356;-56
2021/12/01 07:19:59;;;;;;;;;;;21.40;50.60;;;;;;5116089;28;19915;-55
2021/12/01 07:22:25;;;;;;;;;;;21.40;50.70;;;;;;5115733;28;20014;-56
2021/12/01 07:24:50;;;;;;;;;;;21.50;50.70;;;;;;5115700;28;19908;-54
2021/12/01 07:27:16;;;;;;;;;;;21.50;50.70;;;;;;5115167;28;19908;-55
2021/12/01 07:29:42;;;;;;;;;;;21.50;50.70;;;;;;5115679;28;20368;-57
2021/12/01 07:32:07;;;;;;;;;;;21.50;50.80;;;;;;5115772;28;19953;-53
2021/12/01 07:34:41;;;;;;;;;;;21.50;50.70;;;;;;5097164;28;19916;-50
2021/12/01 07:37:06;;;;;;;;;;;21.50;50.70;;;;;;5114497;28;19931;-52
2021/12/01 07:39:32;;;;;;;;;;;21.50;50.80;;;;;;5115572;28;20376;-51
2021/12/01 07:41:57;;;;;;;;;;;21.50;50.70;;;;;;5096267;28;19908;-51
2021/12/01 07:44:24;;;;;;;;;;;21.50;50.80;;;;;;5109990;28;19915;-55
2021/12/01 07:46:49;;;;;;;;;;;21.50;50.80;;;;;;5104006;28;19912;-53
2021/12/01 07:49:15;;;;;;;;;;;21.60;50.90;;;;;;5095027;28;20011;-54
2021/12/01 07:51:40;;;;;;;;;;;21.50;50.80;;;;;;5094951;28;19956;-53
2021/12/01 07:54:05;;;;;;;;;;;21.60;50.90;;;;;;5090657;28;19976;-52
2021/12/01 07:56:32;;;;;;;;;;;21.60;50.90;;;;;;5093619;28;20253;-52
2021/12/01 07:58:58;;;;;;;;;;;21.50;50.90;;;;;;5113259;28;20002;-54
2021/12/01 08:01:23;;;;;;;;;;;21.60;50.90;;;;;;5115175;28;19988;-49
2021/12/01 08:03:49;;;;;;;;;;;21.60;50.90;;;;;;5115338;28;19915;-48
2021/12/01 08:06:14;;;;;;;;;;;21.60;50.90;;;;;;5115089;28;19915;-50
2021/12/01 08:08:40;;;;;;;;;;;21.60;50.90;;;;;;5114890;28;19930;-49
2021/12/01 08:11:05;;;;;;;;;;;21.60;50.90;;;;;;5114375;28;19908;-49
2021/12/01 08:13:31;;;;;;;;;;;21.60;50.90;;;;;;5114736;28;19922;-49
2021/12/01 08:15:56;;;;;;;;;;;21.60;50.90;;;;;;5114728;28;19907;-47
2021/12/01 08:18:22;;;;;;;;;;;21.60;50.90;;;;;;5114804;28;19911;-50
2021/12/01 08:20:47;;;;;;;;;;;21.60;50.90;;;;;;5114819;28;20425;-51
2021/12/01 08:23:13;;;;;;;;;;;21.60;50.90;;;;;;5113700;28;19942;-48
2021/12/01 08:25:38;;;;;;;;;;;21.60;50.90;;;;;;5113976;28;19962;-50
2021/12/01 08:28:04;;;;;;;;;;;21.60;50.90;;;;;;5114648;28;19907;-49
2021/12/01 08:30:30;;;;;;;;;;;21.60;50.90;;;;;;5114697;28;19908;-49
2021/12/01 08:32:56;;;;;;;;;;;21.60;50.90;;;;;;5114872;28;19914;-49
2021/12/01 08:35:21;;;;;;;;;;;21.60;50.90;;;;;;5114360;28;20308;-49
2021/12/01 08:37:47;;;;;;;;;;;21.60;50.80;;;;;;5114735;28;19907;-50
2021/12/01 08:40:14;;;;;;;;;;;21.60;50.90;;;;;;5114130;28;19908;-48
2021/12/01 08:42:40;;;;;;;;;;;21.60;50.90;;;;;;5114359;28;20004;-50
2021/12/01 08:45:06;;;;;;;;;;;21.60;50.90;;;;;;5114195;28;19943;-48
2021/12/01 08:47:31;;;;;;;;;;;21.70;50.90;;;;;;5114082;28;19908;-49
2021/12/01 08:49:57;;;;;;;;;;;21.70;50.90;;;;;;5114471;28;19912;-51
2021/12/01 08:52:23;;;;;;;;;;;21.70;50.90;;;;;;5113941;28;20006;-48
2021/12/01 08:54:48;;;;;;;;;;;21.70;50.90;;;;;;5095184;28;19923;-50
2021/12/01 08:57:14;;;;;;;;;;;21.60;50.80;;;;;;5114042;28;20342;-52
2021/12/01 08:59:40;;;;;;;;;;;21.70;50.80;;;;;;5113827;28;19908;-49
2021/12/01 09:02:06;;;;;;;;;;;21.70;50.90;;;;;;5114266;28;19976;-48
2021/12/01 09:04:31;;;;;;;;;;;21.70;50.80;;;;;;5113923;28;20360;-52
2021/12/01 09:06:57;;;;;;;;;;;21.70;50.80;;;;;;5113916;28;19908;-48
2021/12/01 09:09:22;;;;;;;;;;;21.70;50.90;;;;;;5100986;28;20332;-52
2021/12/01 09:11:49;;;;;;;;;;;21.70;50.80;;;;;;5093407;28;19915;-49
2021/12/01 09:14:15;;;;;;;;;;;21.70;50.80;;;;;;5093273;28;19917;-48
2021/12/01 09:16:42;;;;;;;;;;;21.70;50.80;;;;;;5093306;28;19915;-48
2021/12/01 09:19:07;;;;;;;;;;;21.70;50.80;;;;;;5094918;28;20019;-53
2021/12/01 09:21:32;;;;;;;;;;;21.70;50.80;;;;;;5113175;28;20396;-49
2021/12/01 09:23:58;;;;;;;;;;;21.70;50.80;;;;;;5113077;28;20053;-50
2021/12/01 09:26:23;;;;;;;;;;;21.70;50.80;;;;;;5113386;28;19908;-48
2021/12/01 09:28:49;;;;;;;;;;;21.70;50.80;;;;;;5113405;28;19908;-50
2021/12/01 09:31:14;;;;;;;;;;;21.70;50.80;;;;;;5113402;28;19907;-50
2021/12/01 09:33:40;;;;;;;;;;;21.70;50.80;;;;;;5113342;28;19916;-51
2021/12/01 09:36:05;;;;;;;;;;;21.70;50.80;;;;;;5112695;28;20407;-49
2021/12/01 09:38:31;;;;;;;;;;;21.70;50.70;;;;;;5113241;28;20399;-49
2021/12/01 09:40:57;;;;;;;;;;;21.70;50.70;;;;;;5113688;28;20318;-51
2021/12/01 09:43:25;;;;;;;;;;;21.70;50.70;;;;;;5112905;28;19912;-52
2021/12/01 09:45:51;;;;;;;;;;;21.70;50.70;;;;;;5113104;28;19908;-50
2021/12/01 09:48:17;;;;;;;;;;;21.80;50.70;;;;;;5112908;28;20393;-48
2021/12/01 09:50:44;;;;;;;;;;;21.80;50.70;;;;;;5112233;28;19914;-49
2021/12/01 09:53:09;;;;;;;;;;;21.80;50.70;;;;;;5112965;28;19955;-49
2021/12/01 09:55:36;;;;;;;;;;;21.80;50.70;;;;;;5112843;28;19968;-52
2021/12/01 09:58:06;;;;;;;;;;;21.80;50.70;;;;;;5112795;28;20382;-49
2021/12/01 10:00:33;;;;;;;;;;;21.80;50.70;;;;;;5113006;28;19908;-52
2021/12/01 10:02:58;;;;;;;;;;;21.80;50.70;;;;;;5112997;28;19939;-48
2021/12/01 10:05:43;;;;;;;;;;;21.80;50.70;;;;;;5112173;28;20252;-48
2021/12/01 10:08:12;;;;;;;;;;;21.80;50.70;;;;;;5112705;28;19908;-49
2021/12/01 10:10:38;;;;;;;;;;;21.80;50.70;;;;;;5112588;28;19931;-51
2021/12/01 10:13:03;;;;;;;;;;;21.80;50.70;;;;;;5112539;28;20256;-50
2021/12/01 10:15:29;;;;;;;;;;;21.80;50.70;;;;;;5112714;28;20004;-49
2021/12/01 10:18:14;;;;;;;;;;;21.80;50.70;;;;;;5112540;28;19914;-47
2021/12/01 10:20:40;;;;;;;;;;;21.80;50.70;;;;;;5112024;28;19915;-52
2021/12/01 10:23:07;;;;;;;;;;;21.90;50.80;;;;;;5112355;28;19920;-49
2021/12/01 10:25:32;;;;;;;;;;;21.80;50.70;;;;;;5112401;28;20360;-50
2021/12/01 10:27:58;;;;;;;;;;;21.90;50.70;;;;;;5112269;28;19915;-51
2021/12/01 10:30:43;;;;;;;;;;;21.80;50.70;;;;;;5103854;28;19908;-51
2021/12/01 10:33:10;;;;;;;;;;;21.90;50.70;;;;;;5099370;28;20268;-49
2021/12/01 10:35:36;;;;;;;;;;;21.90;50.70;;;;;;5111675;28;19912;-52
2021/12/01 10:38:02;;;;;;;;;;;21.90;50.70;;;;;;5112304;28;20033;-50
2021/12/01 10:40:28;;;;;;;;;;;21.90;50.70;;;;;;5112332;28;20307;-50
2021/12/01 10:42:53;;;;;;;;;;;21.90;50.70;;;;;;5112195;28;19915;-49
2021/12/01 10:45:20;;;;;;;;;;;21.90;50.70;;;;;;5111886;28;19908;-52
2021/12/01 10:47:46;;;;;;;;;;;21.90;50.70;;;;;;5102544;28;19908;-49
2021/12/01 10:50:16;;;;;;;;;;;21.90;50.70;;;;;;5091213;28;19914;-49
2021/12/01 10:52:42;;;;;;;;;;;21.90;50.70;;;;;;5092019;28;19908;-47
2021/12/01 10:55:12;;;;;;;;;;;21.90;50.70;;;;;;5092063;28;20337;-50
2021/12/01 10:57:42;;;;;;;;;;;21.90;50.60;;;;;;5091675;28;19919;-49
2021/12/01 11:00:13;;;;;;;;;;;21.90;50.60;;;;;;5091735;28;19908;-49
2021/12/01 11:02:38;;;;;;;;;;;22.00;50.70;;;;;;5091919;28;20332;-50
2021/12/01 11:05:04;;;;;;;;;;;22.00;50.70;;;;;;5098366;28;19914;-49
2021/12/01 11:07:31;;;;;;;;;;;22.00;50.70;;;;;;5112178;28;20360;-49
2021/12/01 11:10:15;;;;;;;;;;;22.00;50.70;;;;;;5112038;28;19912;-50
2021/12/01 11:12:41;;;;;;;;;;;22.00;50.70;;;;;;5111959;28;19907;-53
2021/12/01 11:15:17;;;;;;;;;;;22.00;50.70;;;;;;5111795;28;19920;-52
2021/12/01 11:17:43;;;;;;;;;;;21.90;50.60;;;;;;5111354;28;20391;-51
2021/12/01 11:20:08;;;;;;;;;;;22.00;50.70;;;;;;5111845;28;19908;-51
2021/12/01 11:22:36;;;;;;;;;;;21.90;50.60;;;;;;5090149;28;20356;-51
2021/12/01 11:25:22;;;;;;;;;;;21.90;50.60;;;;;;5091519;28;20276;-51
2021/12/01 11:27:47;;;;;;;;;;;22.00;50.70;;;;;;5091737;28;19908;-48
2021/12/01 11:30:13;;;;;;;;;;;22.00;50.70;;;;;;5091598;28;20275;-47
2021/12/01 11:32:38;;;;;;;;;;;22.00;50.70;;;;;;5090945;28;20257;-50
2021/12/01 11:35:04;;;;;;;;;;;22.00;50.70;;;;;;5090973;28;20267;-52
2021/12/01 11:37:29;;;;;;;;;;;22.00;50.60;;;;;;5091270;28;19908;-51
2021/12/01 11:39:56;;;;;;;;;;;22.00;50.60;;;;;;5091264;28;19908;-50
2021/12/01 11:42:22;;;;;;;;;;;22.00;50.60;;;;;;5091339;28;19909;-52
2021/12/01 11:44:51;;;;;;;;;;;22.00;50.60;;;;;;5091315;28;20361;-53
2021/12/01 11:47:16;;;;;;;;;;;22.00;50.70;;;;;;5090683;28;19912;-50
2021/12/01 11:49:43;;;;;;;;;;;22.00;50.60;;;;;;5091227;28;20160;-49
2021/12/01 11:52:09;;;;;;;;;;;22.00;50.60;;;;;;5091533;28;19967;-51
2021/12/01 11:54:41;;;;;;;;;;;22.00;50.60;;;;;;5091377;28;19956;-54
2021/12/01 11:57:08;;;;;;;;;;;22.10;50.60;;;;;;5074013;28;19931;-51
2021/12/01 11:59:36;;;;;;;;;;;22.00;50.60;;;;;;5073338;28;19912;-55
2021/12/01 12:02:02;;;;;;;;;;;22.00;50.60;;;;;;5074004;28;19908;-55
2021/12/01 12:04:37;;;;;;;;;;;22.00;50.60;;;;;;5074747;28;20016;-57
2021/12/01 12:07:04;;;;;;;;;;;22.00;50.60;;;;;;5074438;28;19920;-52
2021/12/01 12:09:30;;;;;;;;;;;22.00;50.70;;;;;;5074667;28;19961;-46
2021/12/01 12:12:07;;;;;;;;;;;22.10;50.70;;;;;;5072983;28;20375;-51
2021/12/01 12:14:37;;;;;;;;;;;22.10;50.70;;;;;;5074516;28;20066;-48
2021/12/01 12:17:03;;;;;;;;;;;22.10;50.70;;;;;;5073770;28;19920;-50
2021/12/01 12:19:48;;;;;;;;;;;22.10;50.80;;;;;;5074338;28;19909;-56
2021/12/01 12:22:16;;;;;;;;;;;22.10;50.80;;;;;;5082995;28;19959;-53
2021/12/01 12:24:43;;;;;;;;;;;22.10;50.90;;;;;;5094659;28;19915;-54
2021/12/01 12:27:29;;;;;;;;;;;22.10;50.90;;;;;;5094334;28;19997;-54
2021/12/01 12:29:55;;;;;;;;;;;22.10;50.90;;;;;;5094108;28;19908;-58
2021/12/01 12:32:22;;;;;;;;;;;22.10;50.90;;;;;;5093713;28;19908;-58
2021/12/01 12:34:49;;;;;;;;;;;22.10;51.00;;;;;;5092812;28;20294;-58
2021/12/01 12:37:22;;;;;;;;;;;22.10;50.90;;;;;;5094063;28;19908;-56
2021/12/01 12:39:47;;;;;;;;;;;22.20;51.00;;;;;;5094183;28;19908;-59
2021/12/01 12:42:13;;;;;;;;;;;22.20;51.10;;;;;;5093967;28;20436;-58
2021/12/01 12:44:43;;;;;;;;;;;22.20;51.00;;;;;;5093443;28;19927;-59
2021/12/01 12:47:10;;;;;;;;;;;22.20;51.00;;;;;;5093955;28;19908;-57
2021/12/01 12:49:43;;;;;;;;;;;22.20;51.00;;;;;;5093765;28;19908;-58
2021/12/01 12:52:26;;;;;;;;;;;22.30;51.00;;;;;;5093551;28;19937;-58
2021/12/01 12:54:52;;;;;;;;;;;22.20;51.00;;;;;;5093893;28;19969;-58
2021/12/01 12:57:17;;;;;;;;;;;22.20;51.00;;;;;;5093803;28;19908;-57
2021/12/01 12:59:43;;;;;;;;;;;22.20;51.00;;;;;;5093212;28;20001;-58
2021/12/01 13:02:14;;;;;;;;;;;22.30;51.10;;;;;;5093832;28;20280;-59
2021/12/01 13:04:52;;;;;;;;;;;22.30;51.10;;;;;;5093734;28;19908;-58
2021/12/01 13:07:31;;;;;;;;;;;22.30;51.10;;;;;;5093596;28;19915;-58
2021/12/01 13:10:15;;;;;;;;;;;22.30;51.10;;;;;;5093137;28;19909;-57
2021/12/01 13:12:48;;;;;;;;;;;22.30;51.10;;;;;;5093490;28;19961;-57
2021/12/01 13:15:24;;;;;;;;;;;22.30;51.10;;;;;;5084028;28;20279;-57
2021/12/01 13:17:51;;;;;;;;;;;22.30;51.10;;;;;;5092522;28;19908;-58
2021/12/01 13:20:17;;;;;;;;;;;22.30;51.20;;;;;;5093350;28;20349;-59
2021/12/01 13:22:58;;;;;;;;;;;22.30;51.20;;;;;;5092999;28;20383;-57
2021/12/01 13:25:23;;;;;;;;;;;22.30;51.20;;;;;;5093229;28;20420;-58
2021/12/01 13:27:49;;;;;;;;;;;22.30;51.20;;;;;;5093172;28;20006;-58
2021/12/01 13:30:14;;;;;;;;;;;22.30;51.20;;;;;;5092463;28;20269;-57
2021/12/01 13:32:40;;;;;;;;;;;22.30;51.20;;;;;;5091416;28;20049;-59
2021/12/01 13:35:05;;;;;;;;;;;22.30;51.20;;;;;;5092942;28;20014;-59
2021/12/01 13:37:31;;;;;;;;;;;22.30;51.20;;;;;;5092891;28;20010;-59
2021/12/01 13:39:56;;;;;;;;;;;22.30;51.20;;;;;;5093017;28;19959;-59
2021/12/01 13:42:23;;;;;;;;;;;22.30;51.20;;;;;;5092838;28;19909;-59
2021/12/01 13:44:50;;;;;;;;;;;22.30;51.20;;;;;;5092234;28;19931;-59
2021/12/01 13:47:17;;;;;;;;;;;22.30;51.20;;;;;;5092791;28;20372;-59
2021/12/01 13:49:45;;;;;;;;;;;22.30;51.20;;;;;;5092646;28;19908;-60
2021/12/01 13:52:23;;;;;;;;;;;22.30;51.20;;;;;;5092717;28;19912;-58
2021/12/01 13:54:49;;;;;;;;;;;22.30;51.20;;;;;;5092569;28;19916;-59
2021/12/01 13:57:14;;;;;;;;;;;22.30;51.20;;;;;;5092214;28;19914;-59
2021/12/01 13:59:47;;;;;;;;;;;22.30;51.20;;;;;;5092662;28;19908;-60
2021/12/01 14:02:23;;;;;;;;;;;22.30;51.20;;;;;;5092572;28;19942;-59
2021/12/01 14:04:50;;;;;;;;;;;22.20;51.10;;;;;;5092479;28;19908;-59
2021/12/01 14:07:15;;;;;;;;;;;22.20;51.10;;;;;;5092503;28;19919;-59
2021/12/01 14:09:57;;;;;;;;;;;22.30;51.20;;;;;;5092406;28;19912;-60
2021/12/01 14:12:23;;;;;;;;;;;22.30;51.20;;;;;;5091952;28;19908;-59
2021/12/01 14:14:49;;;;;;;;;;;22.30;51.20;;;;;;5090882;28;20014;-59
2021/12/01 14:17:15;;;;;;;;;;;22.30;51.20;;;;;;5092388;28;19915;-59
2021/12/01 14:19:41;;;;;;;;;;;22.30;51.20;;;;;;5092222;28;19995;-58